sensor_id;sensor_type;location;lat;lon;timestamp;P1;durP1;ratioP1;P2;durP2;ratioP2
22705;SDS011;11520;51.198;4.468;2023-07-30T00:01:07;7.10;;;2.47;;
22705;SDS011;11520;51.198;4.468;2023-07-30T00:03:33;11.18;;;2.30;;
22705;SDS011;11520;51.198;4.468;2023-07-30T00:05:58;10.07;;;2.63;;
22705;SDS011;11520;51.198;4.468;2023-07-30T00:08:24;6.97;;;2.53;;
22705;SDS011;11520;51.198;4.468;2023-07-30T00:10:49;10.32;;;3.20;;
22705;SDS011;11520;51.198;4.468;2023-07-30T00:13:15;10.15;;;2.80;;
22705;SDS011;11520;51.198;4.468;2023-07-30T00:15:41;9.88;;;2.78;;
22705;SDS011;11520;51.198;4.468;2023-07-30T00:18:06;13.32;;;2.95;;
22705;SDS011;11520;51.198;4.468;2023-07-30T00:20:33;9.88;;;2.47;;
22705;SDS011;11520;51.198;4.468;2023-07-30T00:23:00;10.57;;;2.70;;
22705;SDS011;11520;51.198;4.468;2023-07-30T00:25:26;9.38;;;2.55;;
22705;SDS011;11520;51.198;4.468;2023-07-30T00:27:52;7.63;;;2.65;;
22705;SDS011;11520;51.198;4.468;2023-07-30T00:30:17;7.65;;;2.15;;
22705;SDS011;11520;51.198;4.468;2023-07-30T00:32:43;11.65;;;2.65;;
22705;SDS011;11520;51.198;4.468;2023-07-30T00:35:09;21.27;;;3.45;;
22705;SDS011;11520;51.198;4.468;2023-07-30T00:37:35;6.80;;;2.15;;
22705;SDS011;11520;51.198;4.468;2023-07-30T00:40:04;9.75;;;2.80;;
22705;SDS011;11520;51.198;4.468;2023-07-30T00:42:30;11.80;;;2.65;;
22705;SDS011;11520;51.198;4.468;2023-07-30T00:44:55;16.88;;;3.42;;
22705;SDS011;11520;51.198;4.468;2023-07-30T00:47:21;10.40;;;2.65;;
22705;SDS011;11520;51.198;4.468;2023-07-30T00:49:47;10.52;;;3.00;;
22705;SDS011;11520;51.198;4.468;2023-07-30T00:52:14;10.40;;;2.50;;
22705;SDS011;11520;51.198;4.468;2023-07-30T00:54:42;8.38;;;2.40;;
22705;SDS011;11520;51.198;4.468;2023-07-30T00:57:07;9.63;;;3.03;;
22705;SDS011;11520;51.198;4.468;2023-07-30T00:59:35;10.35;;;2.30;;
22705;SDS011;11520;51.198;4.468;2023-07-30T01:02:00;10.35;;;2.92;;
22705;SDS011;11520;51.198;4.468;2023-07-30T01:04:28;13.45;;;3.25;;
22705;SDS011;11520;51.198;4.468;2023-07-30T01:06:55;12.60;;;3.00;;
22705;SDS011;11520;51.198;4.468;2023-07-30T01:09:21;9.98;;;2.72;;
22705;SDS011;11520;51.198;4.468;2023-07-30T01:11:47;12.43;;;2.70;;
22705;SDS011;11520;51.198;4.468;2023-07-30T01:14:13;9.95;;;2.97;;
22705;SDS011;11520;51.198;4.468;2023-07-30T01:16:40;13.10;;;3.30;;
22705;SDS011;11520;51.198;4.468;2023-07-30T01:19:06;13.27;;;2.53;;
22705;SDS011;11520;51.198;4.468;2023-07-30T01:21:36;13.43;;;3.45;;
22705;SDS011;11520;51.198;4.468;2023-07-30T01:24:02;13.60;;;3.33;;
22705;SDS011;11520;51.198;4.468;2023-07-30T01:26:37;10.02;;;2.65;;
22705;SDS011;11520;51.198;4.468;2023-07-30T01:29:09;11.45;;;3.10;;
22705;SDS011;11520;51.198;4.468;2023-07-30T01:31:40;10.93;;;2.92;;
22705;SDS011;11520;51.198;4.468;2023-07-30T01:34:06;14.52;;;3.33;;
22705;SDS011;11520;51.198;4.468;2023-07-30T01:36:35;11.43;;;2.60;;
22705;SDS011;11520;51.198;4.468;2023-07-30T01:39:02;8.57;;;2.75;;
22705;SDS011;11520;51.198;4.468;2023-07-30T01:41:28;12.98;;;3.17;;
22705;SDS011;11520;51.198;4.468;2023-07-30T01:43:53;14.20;;;3.05;;
22705;SDS011;11520;51.198;4.468;2023-07-30T01:46:19;14.05;;;2.78;;
22705;SDS011;11520;51.198;4.468;2023-07-30T01:48:45;8.48;;;2.53;;
22705;SDS011;11520;51.198;4.468;2023-07-30T01:51:10;12.13;;;3.05;;
22705;SDS011;11520;51.198;4.468;2023-07-30T01:53:36;14.48;;;3.05;;
22705;SDS011;11520;51.198;4.468;2023-07-30T01:56:01;13.15;;;2.58;;
22705;SDS011;11520;51.198;4.468;2023-07-30T01:58:27;12.30;;;2.78;;
22705;SDS011;11520;51.198;4.468;2023-07-30T02:00:52;13.57;;;2.63;;
22705;SDS011;11520;51.198;4.468;2023-07-30T02:03:18;11.00;;;3.38;;
22705;SDS011;11520;51.198;4.468;2023-07-30T02:05:44;13.82;;;3.38;;
22705;SDS011;11520;51.198;4.468;2023-07-30T02:08:09;17.42;;;4.60;;
22705;SDS011;11520;51.198;4.468;2023-07-30T02:10:35;12.13;;;3.88;;
22705;SDS011;11520;51.198;4.468;2023-07-30T02:13:00;13.65;;;3.10;;
22705;SDS011;11520;51.198;4.468;2023-07-30T02:15:26;14.15;;;3.13;;
22705;SDS011;11520;51.198;4.468;2023-07-30T02:17:51;12.35;;;3.03;;
22705;SDS011;11520;51.198;4.468;2023-07-30T02:20:17;12.38;;;3.00;;
22705;SDS011;11520;51.198;4.468;2023-07-30T02:22:42;13.00;;;3.13;;
22705;SDS011;11520;51.198;4.468;2023-07-30T02:25:08;12.90;;;2.70;;
22705;SDS011;11520;51.198;4.468;2023-07-30T02:27:34;17.02;;;3.30;;
22705;SDS011;11520;51.198;4.468;2023-07-30T02:29:59;13.75;;;2.88;;
22705;SDS011;11520;51.198;4.468;2023-07-30T02:32:25;15.30;;;3.03;;
22705;SDS011;11520;51.198;4.468;2023-07-30T02:34:50;15.63;;;2.70;;
22705;SDS011;11520;51.198;4.468;2023-07-30T02:37:16;10.52;;;2.70;;
22705;SDS011;11520;51.198;4.468;2023-07-30T02:39:41;24.88;;;3.60;;
22705;SDS011;11520;51.198;4.468;2023-07-30T02:42:07;14.48;;;2.80;;
22705;SDS011;11520;51.198;4.468;2023-07-30T02:44:33;15.77;;;3.05;;
22705;SDS011;11520;51.198;4.468;2023-07-30T02:46:58;21.33;;;2.80;;
22705;SDS011;11520;51.198;4.468;2023-07-30T02:49:24;16.95;;;2.95;;
22705;SDS011;11520;51.198;4.468;2023-07-30T02:51:49;16.00;;;2.63;;
22705;SDS011;11520;51.198;4.468;2023-07-30T02:54:15;18.98;;;2.67;;
22705;SDS011;11520;51.198;4.468;2023-07-30T02:56:47;16.67;;;2.60;;
22705;SDS011;11520;51.198;4.468;2023-07-30T02:59:12;16.48;;;3.20;;
22705;SDS011;11520;51.198;4.468;2023-07-30T03:01:38;19.23;;;3.20;;
22705;SDS011;11520;51.198;4.468;2023-07-30T03:04:03;14.88;;;3.38;;
22705;SDS011;11520;51.198;4.468;2023-07-30T03:06:29;17.88;;;2.75;;
22705;SDS011;11520;51.198;4.468;2023-07-30T03:08:55;17.60;;;3.00;;
22705;SDS011;11520;51.198;4.468;2023-07-30T03:11:21;15.38;;;2.70;;
22705;SDS011;11520;51.198;4.468;2023-07-30T03:13:47;16.80;;;3.70;;
22705;SDS011;11520;51.198;4.468;2023-07-30T03:16:13;20.30;;;3.00;;
22705;SDS011;11520;51.198;4.468;2023-07-30T03:18:39;9.73;;;2.50;;
22705;SDS011;11520;51.198;4.468;2023-07-30T03:21:04;12.90;;;2.60;;
22705;SDS011;11520;51.198;4.468;2023-07-30T03:23:30;15.98;;;2.75;;
22705;SDS011;11520;51.198;4.468;2023-07-30T03:25:56;13.23;;;2.63;;
22705;SDS011;11520;51.198;4.468;2023-07-30T03:28:22;13.32;;;2.70;;
22705;SDS011;11520;51.198;4.468;2023-07-30T03:30:48;14.05;;;2.60;;
22705;SDS011;11520;51.198;4.468;2023-07-30T03:33:13;12.70;;;2.42;;
22705;SDS011;11520;51.198;4.468;2023-07-30T03:35:39;16.08;;;3.08;;
22705;SDS011;11520;51.198;4.468;2023-07-30T03:38:05;10.15;;;2.45;;
22705;SDS011;11520;51.198;4.468;2023-07-30T03:40:30;20.95;;;3.50;;
22705;SDS011;11520;51.198;4.468;2023-07-30T03:42:56;14.77;;;2.72;;
22705;SDS011;11520;51.198;4.468;2023-07-30T03:45:21;12.40;;;2.38;;
22705;SDS011;11520;51.198;4.468;2023-07-30T03:47:47;17.95;;;3.00;;
22705;SDS011;11520;51.198;4.468;2023-07-30T03:50:13;14.25;;;2.60;;
22705;SDS011;11520;51.198;4.468;2023-07-30T03:52:38;17.05;;;2.88;;
22705;SDS011;11520;51.198;4.468;2023-07-30T03:55:04;11.85;;;1.98;;
22705;SDS011;11520;51.198;4.468;2023-07-30T03:57:29;14.55;;;3.72;;
22705;SDS011;11520;51.198;4.468;2023-07-30T03:59:55;16.67;;;3.15;;
22705;SDS011;11520;51.198;4.468;2023-07-30T04:02:20;15.00;;;2.90;;
22705;SDS011;11520;51.198;4.468;2023-07-30T04:04:46;16.52;;;3.25;;
22705;SDS011;11520;51.198;4.468;2023-07-30T04:07:14;14.27;;;2.97;;
22705;SDS011;11520;51.198;4.468;2023-07-30T04:09:40;26.73;;;3.33;;
22705;SDS011;11520;51.198;4.468;2023-07-30T04:12:06;16.55;;;3.22;;
22705;SDS011;11520;51.198;4.468;2023-07-30T04:14:31;20.35;;;2.67;;
22705;SDS011;11520;51.198;4.468;2023-07-30T04:16:58;18.13;;;2.63;;
22705;SDS011;11520;51.198;4.468;2023-07-30T04:19:24;18.80;;;3.10;;
22705;SDS011;11520;51.198;4.468;2023-07-30T04:21:50;20.05;;;2.47;;
22705;SDS011;11520;51.198;4.468;2023-07-30T04:24:16;21.02;;;3.45;;
22705;SDS011;11520;51.198;4.468;2023-07-30T04:26:41;19.98;;;4.07;;
22705;SDS011;11520;51.198;4.468;2023-07-30T04:29:07;14.70;;;2.70;;
22705;SDS011;11520;51.198;4.468;2023-07-30T04:31:33;15.27;;;3.53;;
22705;SDS011;11520;51.198;4.468;2023-07-30T04:33:58;17.05;;;3.30;;
22705;SDS011;11520;51.198;4.468;2023-07-30T04:36:24;13.00;;;2.60;;
22705;SDS011;11520;51.198;4.468;2023-07-30T04:38:49;14.77;;;2.92;;
22705;SDS011;11520;51.198;4.468;2023-07-30T04:41:15;15.70;;;2.67;;
22705;SDS011;11520;51.198;4.468;2023-07-30T04:43:42;16.42;;;3.45;;
22705;SDS011;11520;51.198;4.468;2023-07-30T04:46:07;18.70;;;3.10;;
22705;SDS011;11520;51.198;4.468;2023-07-30T04:48:33;15.40;;;3.15;;
22705;SDS011;11520;51.198;4.468;2023-07-30T04:50:58;20.13;;;2.85;;
22705;SDS011;11520;51.198;4.468;2023-07-30T04:53:24;14.60;;;2.78;;
22705;SDS011;11520;51.198;4.468;2023-07-30T04:55:54;23.40;;;3.63;;
22705;SDS011;11520;51.198;4.468;2023-07-30T04:58:21;14.35;;;2.33;;
22705;SDS011;11520;51.198;4.468;2023-07-30T05:00:47;16.70;;;2.67;;
22705;SDS011;11520;51.198;4.468;2023-07-30T05:03:12;16.77;;;3.35;;
22705;SDS011;11520;51.198;4.468;2023-07-30T05:05:38;19.58;;;3.80;;
22705;SDS011;11520;51.198;4.468;2023-07-30T05:08:03;16.90;;;3.15;;
22705;SDS011;11520;51.198;4.468;2023-07-30T05:10:29;17.38;;;3.17;;
22705;SDS011;11520;51.198;4.468;2023-07-30T05:12:54;15.45;;;3.05;;
22705;SDS011;11520;51.198;4.468;2023-07-30T05:15:20;19.85;;;3.83;;
22705;SDS011;11520;51.198;4.468;2023-07-30T05:17:45;19.85;;;2.92;;
22705;SDS011;11520;51.198;4.468;2023-07-30T05:20:11;16.50;;;3.03;;
22705;SDS011;11520;51.198;4.468;2023-07-30T05:22:36;14.63;;;2.83;;
22705;SDS011;11520;51.198;4.468;2023-07-30T05:25:02;19.45;;;3.47;;
22705;SDS011;11520;51.198;4.468;2023-07-30T05:27:28;16.70;;;3.08;;
22705;SDS011;11520;51.198;4.468;2023-07-30T05:29:54;17.60;;;3.38;;
22705;SDS011;11520;51.198;4.468;2023-07-30T05:32:20;13.35;;;3.35;;
22705;SDS011;11520;51.198;4.468;2023-07-30T05:34:46;16.30;;;3.67;;
22705;SDS011;11520;51.198;4.468;2023-07-30T05:37:11;20.95;;;3.25;;
22705;SDS011;11520;51.198;4.468;2023-07-30T05:39:37;14.05;;;2.63;;
22705;SDS011;11520;51.198;4.468;2023-07-30T05:42:02;14.88;;;3.30;;
22705;SDS011;11520;51.198;4.468;2023-07-30T05:44:28;11.85;;;3.05;;
22705;SDS011;11520;51.198;4.468;2023-07-30T05:46:54;17.70;;;3.67;;
22705;SDS011;11520;51.198;4.468;2023-07-30T05:49:19;15.38;;;3.15;;
22705;SDS011;11520;51.198;4.468;2023-07-30T05:51:45;16.50;;;3.03;;
22705;SDS011;11520;51.198;4.468;2023-07-30T05:54:11;13.80;;;2.75;;
22705;SDS011;11520;51.198;4.468;2023-07-30T05:56:37;15.25;;;3.35;;
22705;SDS011;11520;51.198;4.468;2023-07-30T05:59:03;15.02;;;3.15;;
22705;SDS011;11520;51.198;4.468;2023-07-30T06:01:29;14.00;;;3.58;;
22705;SDS011;11520;51.198;4.468;2023-07-30T06:03:54;18.40;;;3.05;;
22705;SDS011;11520;51.198;4.468;2023-07-30T06:06:20;17.40;;;3.35;;
22705;SDS011;11520;51.198;4.468;2023-07-30T06:08:52;17.65;;;3.15;;
22705;SDS011;11520;51.198;4.468;2023-07-30T06:11:19;13.38;;;2.80;;
22705;SDS011;11520;51.198;4.468;2023-07-30T06:13:44;13.65;;;3.13;;
22705;SDS011;11520;51.198;4.468;2023-07-30T06:16:10;19.92;;;3.35;;
22705;SDS011;11520;51.198;4.468;2023-07-30T06:18:35;20.33;;;3.97;;
22705;SDS011;11520;51.198;4.468;2023-07-30T06:21:01;20.13;;;3.70;;
22705;SDS011;11520;51.198;4.468;2023-07-30T06:23:27;19.73;;;3.67;;
22705;SDS011;11520;51.198;4.468;2023-07-30T06:25:52;15.90;;;2.78;;
22705;SDS011;11520;51.198;4.468;2023-07-30T06:28:18;21.05;;;3.25;;
22705;SDS011;11520;51.198;4.468;2023-07-30T06:30:43;16.92;;;3.15;;
22705;SDS011;11520;51.198;4.468;2023-07-30T06:33:10;18.38;;;2.90;;
22705;SDS011;11520;51.198;4.468;2023-07-30T06:35:36;20.77;;;3.58;;
22705;SDS011;11520;51.198;4.468;2023-07-30T06:38:01;14.25;;;2.47;;
22705;SDS011;11520;51.198;4.468;2023-07-30T06:40:27;18.10;;;3.42;;
22705;SDS011;11520;51.198;4.468;2023-07-30T06:42:53;17.20;;;3.30;;
22705;SDS011;11520;51.198;4.468;2023-07-30T06:45:18;16.35;;;2.78;;
22705;SDS011;11520;51.198;4.468;2023-07-30T06:47:44;16.60;;;3.00;;
22705;SDS011;11520;51.198;4.468;2023-07-30T06:50:10;18.58;;;3.10;;
22705;SDS011;11520;51.198;4.468;2023-07-30T06:52:36;15.23;;;3.40;;
22705;SDS011;11520;51.198;4.468;2023-07-30T06:55:02;16.85;;;3.22;;
22705;SDS011;11520;51.198;4.468;2023-07-30T06:57:28;14.77;;;2.85;;
22705;SDS011;11520;51.198;4.468;2023-07-30T06:59:54;13.50;;;2.58;;
22705;SDS011;11520;51.198;4.468;2023-07-30T07:02:20;14.70;;;2.90;;
22705;SDS011;11520;51.198;4.468;2023-07-30T07:04:46;19.73;;;3.58;;
22705;SDS011;11520;51.198;4.468;2023-07-30T07:07:11;16.27;;;2.47;;
22705;SDS011;11520;51.198;4.468;2023-07-30T07:09:37;13.38;;;2.67;;
22705;SDS011;11520;51.198;4.468;2023-07-30T07:12:02;14.15;;;2.80;;
22705;SDS011;11520;51.198;4.468;2023-07-30T07:14:28;15.25;;;3.40;;
22705;SDS011;11520;51.198;4.468;2023-07-30T07:16:54;12.00;;;2.72;;
22705;SDS011;11520;51.198;4.468;2023-07-30T07:19:21;12.98;;;3.03;;
22705;SDS011;11520;51.198;4.468;2023-07-30T07:21:47;13.52;;;2.90;;
22705;SDS011;11520;51.198;4.468;2023-07-30T07:24:12;10.15;;;2.42;;
22705;SDS011;11520;51.198;4.468;2023-07-30T07:26:38;13.85;;;2.58;;
22705;SDS011;11520;51.198;4.468;2023-07-30T07:29:03;10.70;;;2.55;;
22705;SDS011;11520;51.198;4.468;2023-07-30T07:31:29;16.30;;;2.83;;
22705;SDS011;11520;51.198;4.468;2023-07-30T07:33:57;12.30;;;2.95;;
22705;SDS011;11520;51.198;4.468;2023-07-30T07:36:23;16.40;;;3.13;;
22705;SDS011;11520;51.198;4.468;2023-07-30T07:38:49;18.95;;;3.60;;
22705;SDS011;11520;51.198;4.468;2023-07-30T07:41:14;19.52;;;3.10;;
22705;SDS011;11520;51.198;4.468;2023-07-30T07:43:47;13.10;;;2.90;;
22705;SDS011;11520;51.198;4.468;2023-07-30T07:46:14;12.73;;;2.40;;
22705;SDS011;11520;51.198;4.468;2023-07-30T07:48:43;12.65;;;2.83;;
22705;SDS011;11520;51.198;4.468;2023-07-30T07:51:09;12.55;;;2.88;;
22705;SDS011;11520;51.198;4.468;2023-07-30T07:53:35;12.27;;;2.67;;
22705;SDS011;11520;51.198;4.468;2023-07-30T07:56:02;15.77;;;2.45;;
22705;SDS011;11520;51.198;4.468;2023-07-30T07:58:28;10.32;;;2.70;;
22705;SDS011;11520;51.198;4.468;2023-07-30T08:00:55;11.13;;;2.60;;
22705;SDS011;11520;51.198;4.468;2023-07-30T08:03:21;10.95;;;2.33;;
22705;SDS011;11520;51.198;4.468;2023-07-30T08:05:47;13.32;;;2.70;;
22705;SDS011;11520;51.198;4.468;2023-07-30T08:08:13;13.15;;;3.22;;
22705;SDS011;11520;51.198;4.468;2023-07-30T08:10:39;12.95;;;2.60;;
22705;SDS011;11520;51.198;4.468;2023-07-30T08:13:08;15.00;;;3.08;;
22705;SDS011;11520;51.198;4.468;2023-07-30T08:15:34;13.48;;;3.00;;
22705;SDS011;11520;51.198;4.468;2023-07-30T08:18:00;17.83;;;3.10;;
22705;SDS011;11520;51.198;4.468;2023-07-30T08:20:25;12.07;;;3.13;;
22705;SDS011;11520;51.198;4.468;2023-07-30T08:22:51;9.13;;;2.63;;
22705;SDS011;11520;51.198;4.468;2023-07-30T08:25:16;12.00;;;2.80;;
22705;SDS011;11520;51.198;4.468;2023-07-30T08:27:42;13.10;;;2.50;;
22705;SDS011;11520;51.198;4.468;2023-07-30T08:30:08;7.97;;;1.90;;
22705;SDS011;11520;51.198;4.468;2023-07-30T08:32:34;15.65;;;3.03;;
22705;SDS011;11520;51.198;4.468;2023-07-30T08:34:59;9.88;;;2.35;;
22705;SDS011;11520;51.198;4.468;2023-07-30T08:37:25;10.10;;;2.42;;
22705;SDS011;11520;51.198;4.468;2023-07-30T08:39:51;9.40;;;1.80;;
22705;SDS011;11520;51.198;4.468;2023-07-30T08:42:17;7.88;;;1.92;;
22705;SDS011;11520;51.198;4.468;2023-07-30T08:44:43;11.40;;;2.47;;
22705;SDS011;11520;51.198;4.468;2023-07-30T08:47:12;8.85;;;2.13;;
22705;SDS011;11520;51.198;4.468;2023-07-30T08:49:37;10.27;;;2.28;;
22705;SDS011;11520;51.198;4.468;2023-07-30T08:52:03;11.50;;;2.65;;
22705;SDS011;11520;51.198;4.468;2023-07-30T08:54:31;11.15;;;2.78;;
22705;SDS011;11520;51.198;4.468;2023-07-30T08:56:57;7.63;;;1.65;;
22705;SDS011;11520;51.198;4.468;2023-07-30T08:59:23;7.82;;;1.73;;
22705;SDS011;11520;51.198;4.468;2023-07-30T09:01:50;9.05;;;1.90;;
22705;SDS011;11520;51.198;4.468;2023-07-30T09:04:17;5.43;;;1.33;;
22705;SDS011;11520;51.198;4.468;2023-07-30T09:06:43;7.38;;;1.70;;
22705;SDS011;11520;51.198;4.468;2023-07-30T09:09:13;6.35;;;1.63;;
22705;SDS011;11520;51.198;4.468;2023-07-30T09:11:38;4.80;;;1.25;;
22705;SDS011;11520;51.198;4.468;2023-07-30T09:14:05;6.45;;;1.58;;
22705;SDS011;11520;51.198;4.468;2023-07-30T09:16:31;3.88;;;1.20;;
22705;SDS011;11520;51.198;4.468;2023-07-30T09:18:57;6.93;;;1.58;;
22705;SDS011;11520;51.198;4.468;2023-07-30T09:21:32;11.20;;;1.70;;
22705;SDS011;11520;51.198;4.468;2023-07-30T09:24:00;6.05;;;1.67;;
22705;SDS011;11520;51.198;4.468;2023-07-30T09:26:31;9.13;;;1.60;;
22705;SDS011;11520;51.198;4.468;2023-07-30T09:29:09;7.32;;;1.33;;
22705;SDS011;11520;51.198;4.468;2023-07-30T09:31:49;5.63;;;1.27;;
22705;SDS011;11520;51.198;4.468;2023-07-30T09:34:18;6.07;;;1.10;;
22705;SDS011;11520;51.198;4.468;2023-07-30T09:36:45;5.72;;;1.30;;
22705;SDS011;11520;51.198;4.468;2023-07-30T09:39:19;4.90;;;1.27;;
22705;SDS011;11520;51.198;4.468;2023-07-30T09:41:53;4.35;;;1.02;;
22705;SDS011;11520;51.198;4.468;2023-07-30T09:44:24;6.25;;;1.10;;
22705;SDS011;11520;51.198;4.468;2023-07-30T09:46:50;5.32;;;1.20;;
22705;SDS011;11520;51.198;4.468;2023-07-30T09:49:16;4.70;;;1.40;;
22705;SDS011;11520;51.198;4.468;2023-07-30T09:51:43;4.13;;;1.13;;
22705;SDS011;11520;51.198;4.468;2023-07-30T09:54:10;5.13;;;1.10;;
22705;SDS011;11520;51.198;4.468;2023-07-30T09:56:38;3.40;;;1.33;;
22705;SDS011;11520;51.198;4.468;2023-07-30T09:59:05;5.65;;;1.27;;
22705;SDS011;11520;51.198;4.468;2023-07-30T10:01:36;4.25;;;1.08;;
22705;SDS011;11520;51.198;4.468;2023-07-30T10:04:08;3.58;;;1.17;;
22705;SDS011;11520;51.198;4.468;2023-07-30T10:06:35;4.45;;;1.08;;
22705;SDS011;11520;51.198;4.468;2023-07-30T10:09:11;9.40;;;1.77;;
22705;SDS011;11520;51.198;4.468;2023-07-30T10:11:39;6.07;;;1.25;;
22705;SDS011;11520;51.198;4.468;2023-07-30T10:14:06;5.22;;;0.90;;
22705;SDS011;11520;51.198;4.468;2023-07-30T10:16:32;5.93;;;1.33;;
22705;SDS011;11520;51.198;4.468;2023-07-30T10:18:58;6.47;;;1.30;;
22705;SDS011;11520;51.198;4.468;2023-07-30T10:21:25;6.57;;;1.70;;
22705;SDS011;11520;51.198;4.468;2023-07-30T10:23:58;4.55;;;1.48;;
22705;SDS011;11520;51.198;4.468;2023-07-30T10:26:29;4.18;;;1.10;;
22705;SDS011;11520;51.198;4.468;2023-07-30T10:29:11;3.97;;;0.80;;
22705;SDS011;11520;51.198;4.468;2023-07-30T10:31:48;3.55;;;1.35;;
22705;SDS011;11520;51.198;4.468;2023-07-30T10:34:17;4.13;;;1.40;;
22705;SDS011;11520;51.198;4.468;2023-07-30T10:36:46;6.20;;;1.30;;
22705;SDS011;11520;51.198;4.468;2023-07-30T10:39:14;3.47;;;1.27;;
22705;SDS011;11520;51.198;4.468;2023-07-30T10:41:46;6.13;;;1.40;;
22705;SDS011;11520;51.198;4.468;2023-07-30T10:44:32;4.75;;;1.10;;
22705;SDS011;11520;51.198;4.468;2023-07-30T10:46:59;3.05;;;1.00;;
22705;SDS011;11520;51.198;4.468;2023-07-30T10:49:26;4.13;;;1.20;;
22705;SDS011;11520;51.198;4.468;2023-07-30T10:51:52;6.85;;;1.33;;
22705;SDS011;11520;51.198;4.468;2023-07-30T10:54:19;2.80;;;0.90;;
22705;SDS011;11520;51.198;4.468;2023-07-30T10:56:45;4.13;;;1.40;;
22705;SDS011;11520;51.198;4.468;2023-07-30T10:59:11;5.45;;;1.20;;
22705;SDS011;11520;51.198;4.468;2023-07-30T11:01:38;7.63;;;1.35;;
22705;SDS011;11520;51.198;4.468;2023-07-30T11:04:06;6.25;;;1.30;;
22705;SDS011;11520;51.198;4.468;2023-07-30T11:06:32;3.75;;;1.05;;
22705;SDS011;11520;51.198;4.468;2023-07-30T11:08:58;4.95;;;1.20;;
22705;SDS011;11520;51.198;4.468;2023-07-30T11:11:23;4.85;;;0.90;;
22705;SDS011;11520;51.198;4.468;2023-07-30T11:13:50;6.30;;;0.90;;
22705;SDS011;11520;51.198;4.468;2023-07-30T11:16:16;1.58;;;0.77;;
22705;SDS011;11520;51.198;4.468;2023-07-30T11:18:42;4.55;;;1.05;;
22705;SDS011;11520;51.198;4.468;2023-07-30T11:21:12;3.35;;;0.93;;
22705;SDS011;11520;51.198;4.468;2023-07-30T11:23:39;3.42;;;0.90;;
22705;SDS011;11520;51.198;4.468;2023-07-30T11:26:09;3.05;;;0.80;;
22705;SDS011;11520;51.198;4.468;2023-07-30T11:28:44;5.47;;;1.20;;
22705;SDS011;11520;51.198;4.468;2023-07-30T11:31:17;7.38;;;1.13;;
22705;SDS011;11520;51.198;4.468;2023-07-30T11:33:45;5.68;;;0.93;;
22705;SDS011;11520;51.198;4.468;2023-07-30T11:36:16;4.45;;;0.88;;
22705;SDS011;11520;51.198;4.468;2023-07-30T11:38:44;5.75;;;1.40;;
22705;SDS011;11520;51.198;4.468;2023-07-30T11:41:11;3.50;;;1.40;;
22705;SDS011;11520;51.198;4.468;2023-07-30T11:43:38;1.83;;;0.70;;
22705;SDS011;11520;51.198;4.468;2023-07-30T11:48:41;5.18;;;0.80;;
22705;SDS011;11520;51.198;4.468;2023-07-30T11:51:28;4.25;;;0.88;;
22705;SDS011;11520;51.198;4.468;2023-07-30T11:56:25;3.63;;;0.90;;
22705;SDS011;11520;51.198;4.468;2023-07-30T11:58:52;2.58;;;0.77;;
22705;SDS011;11520;51.198;4.468;2023-07-30T12:01:22;4.68;;;0.65;;
22705;SDS011;11520;51.198;4.468;2023-07-30T12:03:49;5.32;;;0.95;;
22705;SDS011;11520;51.198;4.468;2023-07-30T12:06:14;8.82;;;1.05;;
22705;SDS011;11520;51.198;4.468;2023-07-30T12:08:40;4.78;;;0.93;;
22705;SDS011;11520;51.198;4.468;2023-07-30T12:11:06;5.60;;;1.00;;
22705;SDS011;11520;51.198;4.468;2023-07-30T12:13:33;3.72;;;0.90;;
22705;SDS011;11520;51.198;4.468;2023-07-30T12:16:06;5.75;;;1.05;;
22705;SDS011;11520;51.198;4.468;2023-07-30T12:18:32;2.83;;;1.00;;
22705;SDS011;11520;51.198;4.468;2023-07-30T12:20:57;4.65;;;1.58;;
22705;SDS011;11520;51.198;4.468;2023-07-30T12:23:23;9.07;;;1.00;;
22705;SDS011;11520;51.198;4.468;2023-07-30T12:25:48;3.95;;;1.05;;
22705;SDS011;11520;51.198;4.468;2023-07-30T12:28:15;4.05;;;1.00;;
22705;SDS011;11520;51.198;4.468;2023-07-30T12:30:42;6.00;;;1.05;;
22705;SDS011;11520;51.198;4.468;2023-07-30T12:33:07;7.25;;;1.30;;
22705;SDS011;11520;51.198;4.468;2023-07-30T12:35:33;4.20;;;0.95;;
22705;SDS011;11520;51.198;4.468;2023-07-30T12:37:59;4.78;;;0.80;;
22705;SDS011;11520;51.198;4.468;2023-07-30T12:40:25;5.35;;;1.25;;
22705;SDS011;11520;51.198;4.468;2023-07-30T12:42:51;5.35;;;0.82;;
22705;SDS011;11520;51.198;4.468;2023-07-30T12:45:17;5.18;;;0.82;;
22705;SDS011;11520;51.198;4.468;2023-07-30T12:47:43;4.70;;;1.00;;
22705;SDS011;11520;51.198;4.468;2023-07-30T12:50:10;5.15;;;0.95;;
22705;SDS011;11520;51.198;4.468;2023-07-30T12:52:36;3.00;;;1.20;;
22705;SDS011;11520;51.198;4.468;2023-07-30T12:55:01;5.60;;;1.33;;
22705;SDS011;11520;51.198;4.468;2023-07-30T12:57:29;7.35;;;1.30;;
22705;SDS011;11520;51.198;4.468;2023-07-30T12:59:55;6.10;;;1.20;;
22705;SDS011;11520;51.198;4.468;2023-07-30T13:02:21;5.32;;;1.10;;
22705;SDS011;11520;51.198;4.468;2023-07-30T13:04:46;4.18;;;1.08;;
22705;SDS011;11520;51.198;4.468;2023-07-30T13:07:12;2.95;;;0.93;;
22705;SDS011;11520;51.198;4.468;2023-07-30T13:09:39;7.07;;;1.17;;
22705;SDS011;11520;51.198;4.468;2023-07-30T13:12:04;3.90;;;1.02;;
22705;SDS011;11520;51.198;4.468;2023-07-30T13:14:30;5.05;;;1.05;;
22705;SDS011;11520;51.198;4.468;2023-07-30T13:16:56;7.07;;;1.63;;
22705;SDS011;11520;51.198;4.468;2023-07-30T13:19:21;3.10;;;0.75;;
22705;SDS011;11520;51.198;4.468;2023-07-30T13:21:47;4.15;;;1.10;;
22705;SDS011;11520;51.198;4.468;2023-07-30T13:24:13;5.85;;;1.02;;
22705;SDS011;11520;51.198;4.468;2023-07-30T13:26:38;4.57;;;1.17;;
22705;SDS011;11520;51.198;4.468;2023-07-30T13:29:04;6.47;;;1.30;;
22705;SDS011;11520;51.198;4.468;2023-07-30T13:31:30;3.55;;;0.90;;
22705;SDS011;11520;51.198;4.468;2023-07-30T13:33:55;4.82;;;1.00;;
22705;SDS011;11520;51.198;4.468;2023-07-30T13:36:21;5.85;;;1.08;;
22705;SDS011;11520;51.198;4.468;2023-07-30T13:38:47;4.28;;;1.25;;
22705;SDS011;11520;51.198;4.468;2023-07-30T13:41:13;5.72;;;1.27;;
22705;SDS011;11520;51.198;4.468;2023-07-30T13:43:39;5.10;;;1.40;;
22705;SDS011;11520;51.198;4.468;2023-07-30T13:46:04;5.35;;;1.02;;
22705;SDS011;11520;51.198;4.468;2023-07-30T13:48:30;2.78;;;0.90;;
22705;SDS011;11520;51.198;4.468;2023-07-30T13:50:56;8.38;;;1.50;;
22705;SDS011;11520;51.198;4.468;2023-07-30T13:53:22;7.57;;;1.65;;
22705;SDS011;11520;51.198;4.468;2023-07-30T13:55:47;3.65;;;1.13;;
22705;SDS011;11520;51.198;4.468;2023-07-30T13:58:13;8.38;;;1.73;;
22705;SDS011;11520;51.198;4.468;2023-07-30T14:00:40;4.97;;;1.27;;
22705;SDS011;11520;51.198;4.468;2023-07-30T14:03:09;8.82;;;1.75;;
22705;SDS011;11520;51.198;4.468;2023-07-30T14:05:36;10.45;;;1.42;;
22705;SDS011;11520;51.198;4.468;2023-07-30T14:08:02;6.50;;;2.00;;
22705;SDS011;11520;51.198;4.468;2023-07-30T14:10:28;5.43;;;1.50;;
22705;SDS011;11520;51.198;4.468;2023-07-30T14:12:54;6.78;;;1.80;;
22705;SDS011;11520;51.198;4.468;2023-07-30T14:15:20;5.53;;;1.40;;
22705;SDS011;11520;51.198;4.468;2023-07-30T14:17:46;6.05;;;1.83;;
22705;SDS011;11520;51.198;4.468;2023-07-30T14:20:11;6.80;;;1.95;;
22705;SDS011;11520;51.198;4.468;2023-07-30T14:22:37;6.55;;;1.40;;
22705;SDS011;11520;51.198;4.468;2023-07-30T14:25:03;6.57;;;1.40;;
22705;SDS011;11520;51.198;4.468;2023-07-30T14:27:28;5.13;;;1.50;;
22705;SDS011;11520;51.198;4.468;2023-07-30T14:29:54;6.47;;;1.30;;
22705;SDS011;11520;51.198;4.468;2023-07-30T14:32:20;4.90;;;1.73;;
22705;SDS011;11520;51.198;4.468;2023-07-30T14:34:46;6.60;;;2.17;;
22705;SDS011;11520;51.198;4.468;2023-07-30T14:37:11;7.10;;;1.60;;
22705;SDS011;11520;51.198;4.468;2023-07-30T14:39:37;5.88;;;1.55;;
22705;SDS011;11520;51.198;4.468;2023-07-30T14:42:04;7.90;;;1.92;;